CXA8612 ZSAM-ZUGY
Flight info
| Callsign | CXA8612 |
|---|---|
| Flight time | N/A |
| Altitude | 36100 |
| Route | NUSPA W597 IKATA A470 BEBEM R200 GUBLO W22 IDUMA A461 SHL W22 TEPID W24 OSNOV G586 QP B330 ELKAL |
| Aircraft | A359/H-V/N |
Departure
| Time | 2026-05-06 12:49 |
|---|---|
| Airport | Xiamen Gaoqi International Airport (ZSAM) |
Arrival
| Time | N/A |
|---|---|
| Airport | Guiyang Longdongbao International Airport (ZUGY) |
| Time | Latitude | Longitude | Altitude | Speed | Heading |
|---|---|---|---|---|---|
| 2026-05-06 12:39 | 24.53831 | 118.12630 | 56 ft | 0 kts | 143° |
| 2026-05-06 12:40 | 24.53837 | 118.12624 | 58 ft | 3 kts | 144° |
| 2026-05-06 12:40 | 24.53854 | 118.12613 | 55 ft | 3 kts | 154° |
| 2026-05-06 12:40 | 24.53873 | 118.12604 | 55 ft | 3 kts | 164° |
| 2026-05-06 12:40 | 24.53892 | 118.12599 | 55 ft | 3 kts | 171° |
| 2026-05-06 12:41 | 24.53907 | 118.12597 | 58 ft | 1 kts | 172° |
| 2026-05-06 12:41 | 24.53911 | 118.12596 | 55 ft | 0 kts | 172° |
| 2026-05-06 12:43 | 24.53901 | 118.12594 | 56 ft | 5 kts | 194° |
| 2026-05-06 12:43 | 24.53862 | 118.12539 | 55 ft | 15 kts | 234° |
| 2026-05-06 12:44 | 24.53779 | 118.12417 | 58 ft | 24 kts | 232° |
| 2026-05-06 12:44 | 24.53671 | 118.12267 | 57 ft | 26 kts | 234° |
| 2026-05-06 12:44 | 24.53557 | 118.12108 | 58 ft | 26 kts | 247° |
| 2026-05-06 12:44 | 24.53619 | 118.11971 | 65 ft | 14 kts | 281° |
| 2026-05-06 12:45 | 24.53593 | 118.11910 | 66 ft | 9 kts | 234° |
| 2026-05-06 12:45 | 24.53548 | 118.11845 | 59 ft | 12 kts | 232° |
| 2026-05-06 12:45 | 24.53414 | 118.11654 | 62 ft | 19 kts | 238° |
| 2026-05-06 12:46 | 24.53403 | 118.11579 | 72 ft | 0 kts | 282° |
| 2026-05-06 12:47 | 24.53403 | 118.11578 | 72 ft | 1 kts | 282° |
| 2026-05-06 12:47 | 24.53422 | 118.11497 | 66 ft | 18 kts | 292° |
| 2026-05-06 12:47 | 24.53489 | 118.11453 | 63 ft | 8 kts | 21° |
| 2026-05-06 12:47 | 24.53517 | 118.11523 | 63 ft | 14 kts | 60° |
| 2026-05-06 12:48 | 24.53561 | 118.11579 | 60 ft | 0 kts | 52° |
| 2026-05-06 12:48 | 24.53644 | 118.11698 | 59 ft | 59 kts | 52° |
| 2026-05-06 12:48 | 24.54069 | 118.12299 | 55 ft | 137 kts | 52° |
| 2026-05-06 12:48 | 24.54638 | 118.13125 | 268 ft | 174 kts | 54° |
| 2026-05-06 12:49 | 24.55373 | 118.14178 | 1147 ft | 176 kts | 52° |
| 2026-05-06 12:49 | 24.56074 | 118.15280 | 2133 ft | 181 kts | 60° |
| 2026-05-06 12:49 | 24.56533 | 118.16647 | 2662 ft | 203 kts | 81° |
| 2026-05-06 12:49 | 24.56479 | 118.18219 | 3446 ft | 210 kts | 103° |
| 2026-05-06 12:50 | 24.55882 | 118.19703 | 4227 ft | 218 kts | 126° |
| 2026-05-06 12:50 | 24.54787 | 118.20840 | 5044 ft | 221 kts | 150° |
| 2026-05-06 12:50 | 24.53368 | 118.21426 | 5965 ft | 217 kts | 173° |
| 2026-05-06 12:50 | 24.51894 | 118.21371 | 6907 ft | 213 kts | 196° |
| 2026-05-06 12:51 | 24.50598 | 118.20600 | 7779 ft | 214 kts | 225° |
| 2026-05-06 12:51 | 24.49701 | 118.19288 | 8661 ft | 220 kts | 237° |
| 2026-05-06 12:51 | 24.48770 | 118.17822 | 9121 ft | 249 kts | 234° |
| 2026-05-06 12:51 | 24.47684 | 118.16218 | 9604 ft | 272 kts | 233° |
| 2026-05-06 12:52 | 24.46509 | 118.14533 | 10335 ft | 284 kts | 233° |
| 2026-05-06 12:52 | 24.45246 | 118.12739 | 10743 ft | 308 kts | 233° |
| 2026-05-06 12:52 | 24.43893 | 118.10825 | 11249 ft | 325 kts | 233° |
| 2026-05-06 12:52 | 24.42501 | 118.08864 | 11968 ft | 332 kts | 233° |
| 2026-05-06 12:53 | 24.41073 | 118.06854 | 12746 ft | 337 kts | 233° |
| 2026-05-06 12:53 | 24.39617 | 118.04806 | 13520 ft | 342 kts | 233° |
| 2026-05-06 12:53 | 24.38144 | 118.02733 | 14220 ft | 347 kts | 233° |
| 2026-05-06 12:53 | 24.36666 | 118.00656 | 14915 ft | 350 kts | 233° |
| 2026-05-06 12:54 | 24.35147 | 117.98522 | 15654 ft | 353 kts | 233° |
| 2026-05-06 12:54 | 24.33627 | 117.96393 | 16372 ft | 356 kts | 233° |
| 2026-05-06 12:54 | 24.32091 | 117.94236 | 17107 ft | 359 kts | 233° |
| 2026-05-06 12:54 | 24.30543 | 117.92064 | 17836 ft | 363 kts | 233° |
| 2026-05-06 12:55 | 24.28981 | 117.89873 | 18503 ft | 366 kts | 233° |
| 2026-05-06 12:55 | 24.27403 | 117.87661 | 19145 ft | 369 kts | 233° |
| 2026-05-06 12:55 | 24.25814 | 117.85435 | 19787 ft | 372 kts | 233° |
| 2026-05-06 12:55 | 24.24110 | 117.83278 | 20445 ft | 376 kts | 227° |
| 2026-05-06 12:56 | 24.22283 | 117.81270 | 21114 ft | 379 kts | 225° |
| 2026-05-06 12:56 | 24.20389 | 117.79241 | 21794 ft | 382 kts | 225° |
| 2026-05-06 12:56 | 24.18480 | 117.77199 | 22458 ft | 385 kts | 225° |
| 2026-05-06 12:56 | 24.16556 | 117.75139 | 23119 ft | 388 kts | 225° |
| 2026-05-06 12:57 | 24.14614 | 117.73060 | 23745 ft | 392 kts | 225° |
| 2026-05-06 12:57 | 24.12652 | 117.70958 | 24268 ft | 397 kts | 225° |
| 2026-05-06 12:57 | 24.10670 | 117.68834 | 24821 ft | 401 kts | 226° |
| 2026-05-06 12:57 | 24.08666 | 117.66687 | 25392 ft | 405 kts | 226° |
| 2026-05-06 12:58 | 24.06641 | 117.64518 | 25966 ft | 409 kts | 226° |
| 2026-05-06 12:58 | 24.04599 | 117.62335 | 26537 ft | 412 kts | 226° |
| 2026-05-06 12:58 | 24.02538 | 117.60133 | 27111 ft | 416 kts | 226° |
| 2026-05-06 12:58 | 24.00462 | 117.57905 | 27652 ft | 420 kts | 226° |
| 2026-05-06 12:59 | 23.98365 | 117.55654 | 28214 ft | 424 kts | 226° |
| 2026-05-06 12:59 | 23.96247 | 117.53378 | 28741 ft | 428 kts | 226° |